Time;durP1;ratioP1;P1;durP2;ratioP2;P2;SDS_P1;SDS_P2;PMS_P1;PMS_P2;Temp;Humidity;BMP_temperature;BMP_pressure;BME280_temperature;BME280_humidity;BME280_pressure;Samples;Min_cycle;Max_cycle;Signal;HPM_P1;HPM_P2
2023/01/15 00:00:01;;;;;;;1.45;0.70;;;;;;;;;;5061386;28;20042;-81
2023/01/15 00:02:26;;;;;;;1.00;0.80;;;;;;;;;;5079666;28;20074;-79
2023/01/15 00:04:51;;;;;;;1.10;0.80;;;;;;;;;;5079860;28;20025;-81
2023/01/15 00:07:16;;;;;;;1.10;0.80;;;;;;;;;;5080452;28;20492;-80
2023/01/15 00:09:42;;;;;;;1.53;0.90;;;;;;;;;;5080024;28;20020;-83
2023/01/15 00:12:07;;;;;;;1.30;0.80;;;;;;;;;;5080326;28;20264;-80
2023/01/15 00:14:33;;;;;;;1.85;0.82;;;;;;;;;;5061965;28;20278;-81
2023/01/15 00:16:58;;;;;;;1.27;0.98;;;;;;;;;;5061738;28;20035;-80
2023/01/15 00:19:23;;;;;;;0.80;0.70;;;;;;;;;;5078882;28;20031;-79
2023/01/15 00:21:48;;;;;;;1.40;0.90;;;;;;;;;;5079585;28;20265;-80
2023/01/15 00:29:41;;;;;;;1.00;0.88;;;;;;;;;;5079249;28;20031;-81
2023/01/15 00:32:07;;;;;;;1.20;0.90;;;;;;;;;;5061402;28;20020;-80
2023/01/15 00:34:34;;;;;;;1.58;0.90;;;;;;;;;;5079344;28;20264;-79
2023/01/15 00:36:59;;;;;;;1.30;0.80;;;;;;;;;;5079719;28;20036;-79
2023/01/15 00:39:25;;;;;;;0.93;0.75;;;;;;;;;;5078930;28;20420;-80
2023/01/15 00:41:50;;;;;;;1.02;0.80;;;;;;;;;;5079172;28;20024;-80
2023/01/15 00:44:16;;;;;;;1.73;0.90;;;;;;;;;;5078902;28;20371;-80
2023/01/15 00:46:41;;;;;;;1.95;0.90;;;;;;;;;;5078590;28;20158;-80
2023/01/15 00:49:07;;;;;;;1.05;0.95;;;;;;;;;;5078931;28;20031;-81
2023/01/15 00:51:34;;;;;;;3.20;1.00;;;;;;;;;;5078950;28;20024;-79
2023/01/15 00:54:00;;;;;;;2.15;0.93;;;;;;;;;;5061486;28;20089;-80
2023/01/15 00:56:26;;;;;;;1.10;0.82;;;;;;;;;;5059969;28;20040;-79
2023/01/15 00:58:53;;;;;;;2.90;0.93;;;;;;;;;;5078241;28;20028;-80
2023/01/15 01:01:20;;;;;;;1.40;0.65;;;;;;;;;;5077734;28;20029;-80
2023/01/15 01:03:49;;;;;;;1.70;0.80;;;;;;;;;;5078365;28;20085;-79
2023/01/15 01:06:18;;;;;;;0.60;0.60;;;;;;;;;;5078758;28;20036;-80
2023/01/15 01:08:47;;;;;;;0.75;0.70;;;;;;;;;;5060391;28;20028;-80
2023/01/15 01:11:16;;;;;;;5.20;0.70;;;;;;;;;;5060275;28;20073;-80
2023/01/15 01:13:42;;;;;;;0.70;0.60;;;;;;;;;;5078579;28;20033;-80
2023/01/15 01:16:26;;;;;;;0.57;0.50;;;;;;;;;;5078459;28;20142;-80
2023/01/15 01:18:53;;;;;;;0.73;0.68;;;;;;;;;;5059725;28;20024;-78
2023/01/15 01:21:18;;;;;;;1.15;0.63;;;;;;;;;;5078063;28;20162;-81
2023/01/15 01:23:44;;;;;;;0.90;0.70;;;;;;;;;;5078086;28;20048;-78
2023/01/15 01:26:09;;;;;;;2.05;0.70;;;;;;;;;;5059230;28;20504;-80
2023/01/15 01:28:34;;;;;;;1.30;0.60;;;;;;;;;;5078028;28;20036;-78
2023/01/15 01:31:04;;;;;;;1.35;0.70;;;;;;;;;;5079088;28;20024;-80
2023/01/15 01:33:29;;;;;;;1.95;1.10;;;;;;;;;;5078040;28;20028;-79
2023/01/15 01:35:54;;;;;;;1.57;1.07;;;;;;;;;;5077772;28;20047;-79
2023/01/15 01:38:19;;;;;;;1.77;1.23;;;;;;;;;;5077857;28;20261;-79
2023/01/15 01:40:45;;;;;;;1.83;1.20;;;;;;;;;;5059983;28;20349;-80
2023/01/15 01:43:21;;;;;;;1.03;0.93;;;;;;;;;;5078570;28;20340;-80
2023/01/15 01:45:47;;;;;;;2.13;1.45;;;;;;;;;;5078272;28;20269;-80
2023/01/15 01:48:13;;;;;;;3.80;1.50;;;;;;;;;;5060249;28;20167;-80
2023/01/15 01:50:40;;;;;;;2.95;1.55;;;;;;;;;;5078319;28;20021;-79
2023/01/15 01:53:09;;;;;;;1.83;1.33;;;;;;;;;;5078500;28;20024;-81
2023/01/15 01:55:36;;;;;;;1.90;1.70;;;;;;;;;;5077518;28;20046;-80
2023/01/15 01:58:03;;;;;;;2.17;1.42;;;;;;;;;;5077850;28;20028;-79
2023/01/15 02:00:31;;;;;;;2.78;1.60;;;;;;;;;;5077072;28;20115;-79
2023/01/15 02:02:57;;;;;;;1.90;1.20;;;;;;;;;;5077232;28;20097;-80
2023/01/15 02:05:44;;;;;;;2.28;1.63;;;;;;;;;;5077155;28;20494;-79
2023/01/15 02:08:09;;;;;;;1.77;1.40;;;;;;;;;;5059997;28;20020;-81
2023/01/15 02:10:35;;;;;;;2.53;1.45;;;;;;;;;;5077431;28;20074;-80
2023/01/15 02:13:08;;;;;;;2.42;1.35;;;;;;;;;;5059165;28;20115;-80
2023/01/15 02:15:55;;;;;;;1.33;1.13;;;;;;;;;;5077836;28;20078;-80
2023/01/15 02:18:33;;;;;;;1.88;1.30;;;;;;;;;;5077659;28;20512;-81
2023/01/15 02:21:02;;;;;;;1.42;1.25;;;;;;;;;;5076387;28;20061;-80
2023/01/15 02:24:07;;;;;;;1.45;1.20;;;;;;;;;;5058473;28;20398;-80
2023/01/15 02:27:06;;;;;;;1.75;1.20;;;;;;;;;;5015314;28;20045;-84
2023/01/15 02:29:39;;;;;;;1.20;1.00;;;;;;;;;;5061658;28;20024;-80
2023/01/15 02:32:12;;;;;;;1.50;1.05;;;;;;;;;;5077362;28;20028;-79
2023/01/15 02:34:45;;;;;;;1.27;1.00;;;;;;;;;;5077400;28;20037;-80
2023/01/15 02:37:16;;;;;;;1.63;1.10;;;;;;;;;;5074937;28;20024;-78
2023/01/15 02:39:45;;;;;;;1.17;1.00;;;;;;;;;;5057441;28;20386;-78
2023/01/15 02:42:12;;;;;;;1.65;1.17;;;;;;;;;;5056920;28;20027;-78
2023/01/15 02:44:42;;;;;;;1.95;1.20;;;;;;;;;;4997395;28;21078;-78
2023/01/15 02:47:09;;;;;;;1.35;1.10;;;;;;;;;;4915276;28;20028;-77
2023/01/15 02:49:36;;;;;;;1.42;0.93;;;;;;;;;;5037041;28;20048;-82
2023/01/15 02:52:06;;;;;;;1.75;1.20;;;;;;;;;;5071439;28;20054;-81
2023/01/15 02:54:41;;;;;;;2.45;1.15;;;;;;;;;;5073297;28;20595;-83
2023/01/15 02:57:09;;;;;;;1.38;0.80;;;;;;;;;;5073703;28;20017;-81
2023/01/15 02:59:41;;;;;;;1.10;0.98;;;;;;;;;;5064751;28;20041;-81
2023/01/15 03:02:12;;;;;;;1.70;1.00;;;;;;;;;;5065658;28;20107;-80
2023/01/15 03:04:57;;;;;;;0.80;0.80;;;;;;;;;;5013495;28;20177;-82
2023/01/15 03:07:46;;;;;;;1.05;0.90;;;;;;;;;;5013611;28;20056;-81
2023/01/15 03:10:12;;;;;;;1.25;0.85;;;;;;;;;;5019285;28;20024;-81
2023/01/15 03:13:01;;;;;;;1.63;0.85;;;;;;;;;;5062078;28;20068;-82
2023/01/15 03:19:01;;;;;;;2.03;0.90;;;;;;;;;;5076674;28;20043;-81
2023/01/15 03:21:32;;;;;;;2.10;0.80;;;;;;;;;;5076743;28;20024;-81
2023/01/15 03:24:00;;;;;;;0.90;0.80;;;;;;;;;;5077212;28;20020;-83
2023/01/15 03:26:27;;;;;;;1.25;0.73;;;;;;;;;;5076921;28;20028;-82
2023/01/15 03:28:54;;;;;;;1.50;0.65;;;;;;;;;;5059311;28;20078;-81
2023/01/15 03:31:19;;;;;;;1.45;0.98;;;;;;;;;;5077327;28;20107;-81
2023/01/15 03:33:45;;;;;;;0.85;0.75;;;;;;;;;;5081220;28;20079;-82
2023/01/15 03:36:11;;;;;;;1.30;1.00;;;;;;;;;;5080734;28;20029;-82
2023/01/15 03:38:38;;;;;;;1.42;0.80;;;;;;;;;;5081006;28;20024;-81
2023/01/15 03:41:16;;;;;;;1.90;1.00;;;;;;;;;;5080882;28;20032;-81
2023/01/15 03:44:01;;;;;;;0.98;0.88;;;;;;;;;;5081136;28;20381;-81
2023/01/15 03:46:26;;;;;;;1.00;0.90;;;;;;;;;;5080597;28;20035;-82
2023/01/15 03:49:06;;;;;;;2.43;1.10;;;;;;;;;;5080468;28;20107;-82
2023/01/15 03:51:39;;;;;;;1.70;1.00;;;;;;;;;;5081222;28;20024;-82
2023/01/15 03:54:11;;;;;;;1.25;1.05;;;;;;;;;;5063057;28;20383;-82
2023/01/15 03:56:54;;;;;;;1.27;0.77;;;;;;;;;;5079809;28;20031;-83
2023/01/15 03:59:28;;;;;;;1.15;0.82;;;;;;;;;;5062481;28;20031;-81
2023/01/15 04:01:54;;;;;;;0.95;0.85;;;;;;;;;;5080567;28;20028;-83
2023/01/15 04:04:19;;;;;;;0.95;0.80;;;;;;;;;;5081202;28;20032;-82
2023/01/15 04:06:45;;;;;;;1.00;0.90;;;;;;;;;;5063049;28;20110;-80
2023/01/15 04:09:12;;;;;;;1.15;0.77;;;;;;;;;;5080036;28;20080;-82
2023/01/15 04:11:37;;;;;;;1.70;0.80;;;;;;;;;;5079719;28;20331;-81
2023/01/15 04:14:03;;;;;;;1.30;1.00;;;;;;;;;;5080208;28;20020;-81
2023/01/15 04:16:31;;;;;;;4.80;1.17;;;;;;;;;;5079655;28;20027;-82
2023/01/15 04:18:57;;;;;;;1.27;1.17;;;;;;;;;;5061433;28;20496;-81
2023/01/15 04:21:23;;;;;;;1.70;1.20;;;;;;;;;;5079451;28;20033;-82
2023/01/15 04:23:48;;;;;;;2.33;1.27;;;;;;;;;;5079925;28;20094;-81
2023/01/15 04:26:14;;;;;;;5.50;1.33;;;;;;;;;;5061412;28;20111;-81
2023/01/15 04:28:40;;;;;;;1.40;1.23;;;;;;;;;;5079634;28;20032;-80
2023/01/15 04:31:05;;;;;;;1.48;1.20;;;;;;;;;;5078593;28;20024;-81
2023/01/15 04:33:30;;;;;;;2.08;1.30;;;;;;;;;;5061178;28;20482;-82
2023/01/15 04:35:59;;;;;;;1.50;1.00;;;;;;;;;;5079426;28;20478;-81
2023/01/15 04:38:24;;;;;;;2.00;1.20;;;;;;;;;;5060730;28;20021;-82
2023/01/15 04:46:21;;;;;;;1.67;1.20;;;;;;;;;;5079051;28;20043;-80
2023/01/15 04:48:46;;;;;;;1.52;1.00;;;;;;;;;;5060816;28;20028;-81
2023/01/15 04:51:11;;;;;;;2.33;1.10;;;;;;;;;;5061861;28;20021;-80
2023/01/15 04:53:36;;;;;;;1.02;0.93;;;;;;;;;;5061692;28;20253;-82
2023/01/15 04:56:03;;;;;;;2.83;1.30;;;;;;;;;;5061422;28;20028;-82
2023/01/15 04:58:29;;;;;;;1.27;1.10;;;;;;;;;;5078520;28;20722;-80
2023/01/15 05:00:55;;;;;;;0.95;0.90;;;;;;;;;;5077876;28;20044;-80
2023/01/15 05:03:20;;;;;;;1.63;1.08;;;;;;;;;;5060679;28;20024;-82
2023/01/15 05:05:45;;;;;;;3.13;1.20;;;;;;;;;;5079228;28;20029;-81
2023/01/15 05:08:10;;;;;;;1.37;1.10;;;;;;;;;;5079439;28;20761;-80
2023/01/15 05:10:35;;;;;;;1.67;1.08;;;;;;;;;;5060206;28;20242;-80
2023/01/15 05:13:01;;;;;;;1.30;1.10;;;;;;;;;;5060833;28;20056;-81
2023/01/15 05:15:26;;;;;;;1.33;1.13;;;;;;;;;;5061148;28;20265;-80
2023/01/15 05:17:51;;;;;;;3.70;1.50;;;;;;;;;;5060559;28;20265;-80
2023/01/15 05:20:16;;;;;;;2.33;1.00;;;;;;;;;;5078175;28;20292;-80
2023/01/15 05:22:42;;;;;;;0.80;0.80;;;;;;;;;;5078510;28;20261;-82
2023/01/15 05:25:07;;;;;;;1.55;1.17;;;;;;;;;;5078015;28;20269;-81
2023/01/15 05:27:32;;;;;;;2.00;0.90;;;;;;;;;;5060430;28;20086;-81
2023/01/15 05:29:57;;;;;;;0.85;0.70;;;;;;;;;;5078414;28;20020;-82
2023/01/15 05:32:23;;;;;;;1.23;0.90;;;;;;;;;;5061059;28;20033;-81
2023/01/15 05:34:48;;;;;;;2.67;0.80;;;;;;;;;;5078320;28;20265;-81
2023/01/15 05:37:13;;;;;;;1.23;0.87;;;;;;;;;;5078912;28;20348;-82
2023/01/15 05:39:38;;;;;;;0.60;0.60;;;;;;;;;;5078016;28;20284;-82
2023/01/15 05:42:03;;;;;;;1.50;0.70;;;;;;;;;;5078940;28;20272;-82
2023/01/15 05:44:29;;;;;;;1.00;0.60;;;;;;;;;;5077265;28;20265;-81
2023/01/15 05:46:57;;;;;;;0.50;0.50;;;;;;;;;;5077579;28;20493;-81
2023/01/15 05:49:26;;;;;;;0.90;0.60;;;;;;;;;;5078468;28;20032;-81
2023/01/15 05:51:52;;;;;;;0.52;0.50;;;;;;;;;;5078251;28;20020;-82
2023/01/15 05:54:20;;;;;;;0.98;0.70;;;;;;;;;;5077342;28;20067;-82
2023/01/15 05:56:47;;;;;;;1.02;0.60;;;;;;;;;;5060306;28;20023;-82
2023/01/15 05:59:13;;;;;;;0.82;0.68;;;;;;;;;;5078236;28;20532;-82
2023/01/15 06:01:39;;;;;;;1.58;0.90;;;;;;;;;;5078470;28;20063;-82
2023/01/15 06:04:05;;;;;;;1.15;0.90;;;;;;;;;;5060570;28;20028;-81
2023/01/15 06:06:31;;;;;;;0.90;0.88;;;;;;;;;;5077934;28;20440;-81
2023/01/15 06:08:57;;;;;;;2.05;0.90;;;;;;;;;;5060015;28;20020;-83
2023/01/15 06:11:22;;;;;;;1.33;0.95;;;;;;;;;;5060795;28;20029;-83
2023/01/15 06:13:48;;;;;;;1.02;0.93;;;;;;;;;;5078142;28;20496;-82
2023/01/15 06:16:13;;;;;;;1.17;1.02;;;;;;;;;;5060362;28;20024;-82
2023/01/15 06:18:38;;;;;;;2.03;1.20;;;;;;;;;;5059875;28;20493;-82
2023/01/15 06:21:05;;;;;;;1.70;1.20;;;;;;;;;;5078756;28;20035;-82
2023/01/15 06:23:31;;;;;;;1.17;1.00;;;;;;;;;;5078230;28;20025;-81
2023/01/15 06:26:01;;;;;;;1.13;1.00;;;;;;;;;;5078746;28;20025;-81
2023/01/15 06:28:26;;;;;;;1.48;1.10;;;;;;;;;;5059875;28;20021;-81
2023/01/15 06:30:51;;;;;;;1.20;1.10;;;;;;;;;;5060067;28;20158;-80
2023/01/15 06:33:17;;;;;;;1.30;0.93;;;;;;;;;;5077328;28;20084;-81
2023/01/15 06:35:42;;;;;;;1.43;1.00;;;;;;;;;;5060401;28;20020;-82
2023/01/15 06:38:07;;;;;;;0.80;0.80;;;;;;;;;;5078545;28;20256;-82
2023/01/15 06:40:32;;;;;;;1.67;1.20;;;;;;;;;;5060489;28;20281;-82
2023/01/15 06:48:26;;;;;;;0.47;0.40;;;;;;;;;;5078470;28;19958;-82
2023/01/15 06:50:52;;;;;;;0.38;0.30;;;;;;;;;;5077897;28;20428;-83
2023/01/15 06:53:19;;;;;;;0.10;0.10;;;;;;;;;;5078131;28;20053;-82
2023/01/15 06:55:44;;;;;;;0.08;0.08;;;;;;;;;;5060180;28;20035;-82
2023/01/15 06:58:09;;;;;;;1.58;0.17;;;;;;;;;;5078430;28;20386;-82
2023/01/15 07:00:35;;;;;;;0.75;0.25;;;;;;;;;;5078133;28;20105;-81
2023/01/15 07:03:01;;;;;;;0.43;0.30;;;;;;;;;;5077379;28;20017;-82
2023/01/15 07:05:26;;;;;;;0.10;0.10;;;;;;;;;;5078089;28;20028;-81
2023/01/15 07:07:52;;;;;;;0.25;0.13;;;;;;;;;;5059711;28;20024;-81
2023/01/15 07:10:18;;;;;;;0.25;0.20;;;;;;;;;;5077233;28;20428;-79
2023/01/15 07:12:43;;;;;;;0.20;0.20;;;;;;;;;;5077360;28;20028;-81
2023/01/15 07:15:09;;;;;;;0.20;0.20;;;;;;;;;;5076796;28;20024;-81
2023/01/15 07:17:34;;;;;;;0.28;0.22;;;;;;;;;;5076644;28;20346;-82
2023/01/15 07:19:59;;;;;;;0.75;0.40;;;;;;;;;;5058579;28;20384;-82
2023/01/15 07:22:25;;;;;;;0.28;0.28;;;;;;;;;;5058937;28;20054;-81
2023/01/15 07:24:50;;;;;;;0.32;0.32;;;;;;;;;;5058755;28;20081;-82
2023/01/15 07:27:15;;;;;;;0.63;0.32;;;;;;;;;;5059143;28;20048;-81
2023/01/15 07:29:40;;;;;;;0.20;0.20;;;;;;;;;;5058984;28;20559;-82
2023/01/15 07:32:06;;;;;;;0.73;0.20;;;;;;;;;;5076216;28;20730;-81
2023/01/15 07:34:31;;;;;;;0.32;0.20;;;;;;;;;;5075628;28;20796;-83
2023/01/15 07:36:56;;;;;;;0.30;0.30;;;;;;;;;;5076109;28;20035;-81
2023/01/15 07:39:21;;;;;;;0.60;0.40;;;;;;;;;;5058117;28;20265;-82
2023/01/15 07:50:06;;;;;;;0.38;0.38;;;;;;;;;;5077228;28;20047;-81
2023/01/15 07:52:31;;;;;;;3.17;0.30;;;;;;;;;;5076074;28;20032;-82
2023/01/15 07:54:57;;;;;;;1.75;0.90;;;;;;;;;;5076047;28;20025;-82
2023/01/15 07:57:22;;;;;;;1.20;0.50;;;;;;;;;;5077162;28;20040;-82
2023/01/15 07:59:49;;;;;;;2.88;0.93;;;;;;;;;;5076630;28;20264;-82
2023/01/15 08:02:14;;;;;;;2.65;1.05;;;;;;;;;;5076251;28;20493;-83
2023/01/15 08:04:39;;;;;;;0.43;0.43;;;;;;;;;;5076127;28;20116;-82
2023/01/15 08:07:05;;;;;;;1.42;0.50;;;;;;;;;;5076057;28;20032;-83
2023/01/15 08:09:31;;;;;;;0.90;0.52;;;;;;;;;;5076505;28;20024;-85
2023/01/15 08:17:29;;;;;;;0.80;0.50;;;;;;;;;;5076689;28;20528;-81
2023/01/15 08:19:54;;;;;;;2.22;0.57;;;;;;;;;;5079728;28;20486;-81
2023/01/15 08:22:20;;;;;;;0.70;0.40;;;;;;;;;;5080446;28;20054;-80
2023/01/15 08:24:45;;;;;;;0.93;0.50;;;;;;;;;;5079839;28;20367;-80
2023/01/15 08:27:11;;;;;;;0.50;0.50;;;;;;;;;;5080183;28;20462;-81
2023/01/15 08:29:36;;;;;;;2.05;0.60;;;;;;;;;;5079723;28;20047;-81
2023/01/15 08:32:01;;;;;;;0.77;0.40;;;;;;;;;;5079666;28;20111;-81
2023/01/15 08:34:26;;;;;;;0.60;0.52;;;;;;;;;;5079916;28;20293;-81
2023/01/15 08:36:56;;;;;;;1.03;0.63;;;;;;;;;;5079520;28;20025;-82
2023/01/15 08:39:22;;;;;;;0.55;0.50;;;;;;;;;;5062482;28;20699;-81
2023/01/15 08:41:47;;;;;;;0.63;0.50;;;;;;;;;;5079940;28;20044;-80
2023/01/15 08:44:12;;;;;;;1.58;0.52;;;;;;;;;;5061521;28;20028;-82
2023/01/15 08:46:37;;;;;;;0.65;0.60;;;;;;;;;;5079301;28;20048;-81
2023/01/15 08:49:03;;;;;;;1.13;0.70;;;;;;;;;;5061330;28;20025;-81
2023/01/15 08:51:28;;;;;;;2.53;0.80;;;;;;;;;;5061532;28;20319;-82
2023/01/15 08:53:53;;;;;;;2.25;0.60;;;;;;;;;;5061571;28;20257;-81
2023/01/15 08:56:19;;;;;;;0.30;0.30;;;;;;;;;;5079800;28;20044;-82
2023/01/15 08:58:46;;;;;;;1.45;0.60;;;;;;;;;;5061610;28;20088;-82
2023/01/15 09:01:14;;;;;;;1.17;0.63;;;;;;;;;;5060794;28;20020;-82
2023/01/15 09:03:43;;;;;;;3.08;0.80;;;;;;;;;;5078821;28;20397;-82
2023/01/15 09:06:09;;;;;;;2.72;1.20;;;;;;;;;;5060249;28;20020;-79
2023/01/15 09:08:35;;;;;;;4.32;1.52;;;;;;;;;;5061001;28;20036;-79
2023/01/15 09:11:02;;;;;;;2.20;1.20;;;;;;;;;;5079569;28;20098;-81
2023/01/15 09:13:29;;;;;;;1.77;0.90;;;;;;;;;;5061272;28;20031;-80
2023/01/15 09:16:03;;;;;;;1.75;1.10;;;;;;;;;;5060227;28;20091;-80
2023/01/15 09:18:29;;;;;;;3.17;1.27;;;;;;;;;;5078417;28;20089;-82
2023/01/15 09:20:54;;;;;;;1.13;0.85;;;;;;;;;;5078496;28;20443;-82
2023/01/15 09:23:20;;;;;;;1.75;0.90;;;;;;;;;;5060140;28;20024;-81
2023/01/15 09:25:57;;;;;;;3.05;1.00;;;;;;;;;;5078318;28;20393;-81
2023/01/15 09:28:22;;;;;;;1.33;0.80;;;;;;;;;;5077685;28;20021;-81
2023/01/15 09:30:48;;;;;;;2.08;0.80;;;;;;;;;;5077588;28;20493;-80
2023/01/15 09:33:14;;;;;;;2.35;1.10;;;;;;;;;;5060115;28;20028;-81
2023/01/15 09:35:39;;;;;;;1.88;1.45;;;;;;;;;;5077872;28;20024;-82
2023/01/15 09:38:05;;;;;;;2.38;0.90;;;;;;;;;;5059612;28;20028;-81
2023/01/15 09:40:33;;;;;;;2.72;1.25;;;;;;;;;;5059996;28;20021;-81
2023/01/15 09:43:05;;;;;;;1.13;0.98;;;;;;;;;;5077896;28;20025;-81
2023/01/15 09:45:40;;;;;;;1.00;0.80;;;;;;;;;;5078015;28;20028;-81
2023/01/15 09:48:22;;;;;;;0.80;0.80;;;;;;;;;;5059822;28;20041;-81
2023/01/15 09:51:02;;;;;;;1.52;1.13;;;;;;;;;;5060491;28;20017;-82
2023/01/15 09:54:04;;;;;;;2.90;1.15;;;;;;;;;;5078000;28;20098;-81
2023/01/15 09:56:32;;;;;;;3.15;1.00;;;;;;;;;;5059610;28;20486;-82
2023/01/15 09:59:00;;;;;;;2.70;1.63;;;;;;;;;;5059878;28;20021;-81
2023/01/15 10:01:29;;;;;;;3.80;1.73;;;;;;;;;;5078038;28;20421;-82
2023/01/15 10:04:04;;;;;;;4.25;2.17;;;;;;;;;;5078583;28;20028;-81
2023/01/15 10:07:02;;;;;;;3.30;1.75;;;;;;;;;;5077971;28;20036;-81
2023/01/15 10:09:36;;;;;;;3.35;0.93;;;;;;;;;;5077837;28;20040;-82
2023/01/15 10:12:34;;;;;;;1.92;1.05;;;;;;;;;;5059544;28;20029;-81
2023/01/15 10:15:26;;;;;;;0.73;0.68;;;;;;;;;;5059369;28;20036;-83
2023/01/15 10:17:55;;;;;;;1.10;0.90;;;;;;;;;;5060288;28;20539;-82
2023/01/15 10:20:48;;;;;;;1.00;0.90;;;;;;;;;;5078426;28;20101;-80
2023/01/15 10:23:29;;;;;;;2.25;1.17;;;;;;;;;;5078998;28;20052;-82
2023/01/15 10:26:15;;;;;;;1.50;0.90;;;;;;;;;;5077575;28;20028;-80
2023/01/15 10:28:59;;;;;;;1.85;1.33;;;;;;;;;;5078345;28;20027;-81
2023/01/15 10:31:35;;;;;;;4.72;1.60;;;;;;;;;;5077837;28;20029;-81
2023/01/15 10:34:39;;;;;;;3.22;1.50;;;;;;;;;;5077903;28;20374;-81
2023/01/15 10:37:28;;;;;;;1.75;1.30;;;;;;;;;;5028496;28;20555;-82
2023/01/15 10:40:29;;;;;;;2.10;1.40;;;;;;;;;;5076788;28;20028;-81
2023/01/15 10:43:16;;;;;;;2.53;1.30;;;;;;;;;;5076867;28;20066;-81
2023/01/15 10:45:51;;;;;;;1.35;1.10;;;;;;;;;;5076991;28;20029;-81
2023/01/15 10:48:37;;;;;;;1.58;1.05;;;;;;;;;;5077659;28;20071;-82
2023/01/15 10:51:12;;;;;;;3.25;1.60;;;;;;;;;;5059513;28;20028;-82
2023/01/15 10:54:03;;;;;;;1.30;1.00;;;;;;;;;;5077288;28;20036;-82
2023/01/15 10:56:39;;;;;;;0.90;0.65;;;;;;;;;;5058831;28;20119;-81
2023/01/15 10:59:18;;;;;;;2.63;0.90;;;;;;;;;;5077091;28;20020;-82
2023/01/15 11:01:43;;;;;;;2.53;1.00;;;;;;;;;;5077917;28;20031;-81
2023/01/15 11:04:12;;;;;;;1.77;1.00;;;;;;;;;;5060965;28;20024;-81
2023/01/15 11:06:38;;;;;;;0.70;0.70;;;;;;;;;;5078064;28;20078;-81
2023/01/15 11:09:04;;;;;;;6.70;3.22;;;;;;;;;;5078292;28;20037;-82
2023/01/15 11:20:29;;;;;;;0.50;0.50;;;;;;;;;;5078177;28;20031;-82
2023/01/15 11:23:04;;;;;;;0.68;0.45;;;;;;;;;;5079025;28;20401;-81
2023/01/15 11:25:31;;;;;;;0.55;0.50;;;;;;;;;;5078463;28;20477;-81
2023/01/15 11:28:00;;;;;;;0.60;0.40;;;;;;;;;;5059755;28;20123;-82
2023/01/15 11:30:30;;;;;;;1.85;0.50;;;;;;;;;;5059409;28;20066;-81
2023/01/15 11:32:57;;;;;;;0.52;0.38;;;;;;;;;;5059991;28;20040;-82
2023/01/15 11:35:23;;;;;;;0.50;0.40;;;;;;;;;;5078275;28;20025;-82
2023/01/15 11:37:49;;;;;;;1.27;0.60;;;;;;;;;;5077179;28;20028;-82
2023/01/15 11:40:22;;;;;;;2.55;0.38;;;;;;;;;;5077997;28;20393;-81
2023/01/15 11:51:08;;;;;;;0.52;0.47;;;;;;;;;;5077879;28;20024;-81
2023/01/15 11:53:40;;;;;;;0.57;0.40;;;;;;;;;;5062524;28;20059;-81
2023/01/15 11:56:10;;;;;;;0.75;0.40;;;;;;;;;;5081469;28;20170;-82
2023/01/15 11:58:46;;;;;;;1.67;0.50;;;;;;;;;;5081263;28;20025;-82
2023/01/15 12:01:20;;;;;;;0.52;0.50;;;;;;;;;;5063509;28;20062;-81
2023/01/15 12:03:45;;;;;;;1.00;0.60;;;;;;;;;;5082035;28;20043;-82
2023/01/15 12:06:13;;;;;;;0.52;0.45;;;;;;;;;;5081145;28;20024;-81
2023/01/15 12:08:51;;;;;;;1.13;0.80;;;;;;;;;;5081386;28;20029;-81
2023/01/15 12:11:53;;;;;;;2.15;0.80;;;;;;;;;;5081879;28;20027;-80
2023/01/15 12:14:46;;;;;;;0.80;0.55;;;;;;;;;;5081671;28;20119;-82
2023/01/15 12:17:40;;;;;;;0.63;0.52;;;;;;;;;;5081835;28;20025;-82
2023/01/15 12:20:25;;;;;;;0.73;0.50;;;;;;;;;;5081740;28;20028;-82
2023/01/15 12:23:18;;;;;;;1.20;0.55;;;;;;;;;;5063355;28;20100;-81
2023/01/15 12:25:54;;;;;;;0.60;0.60;;;;;;;;;;5063652;28;20029;-81
2023/01/15 12:28:32;;;;;;;0.63;0.50;;;;;;;;;;5080742;28;20025;-80
2023/01/15 12:31:10;;;;;;;0.80;0.50;;;;;;;;;;5081941;28;20051;-81
2023/01/15 12:33:45;;;;;;;0.88;0.43;;;;;;;;;;5081755;28;20105;-81
2023/01/15 12:36:29;;;;;;;1.17;0.60;;;;;;;;;;5082079;28;20362;-81
2023/01/15 12:38:59;;;;;;;;;;;;;;;;;;5082378;28;20115;-83
2023/01/15 12:44:59;;;;;;;0.70;0.60;;;;;;;;;;5081926;28;19923;-82
2023/01/15 12:47:12;;;;;;;1.10;0.70;;;;;;;;;;5080775;28;20035;-81
2023/01/15 12:49:46;;;;;;;0.77;0.60;;;;;;;;;;5081164;28;20028;-80
2023/01/15 12:52:14;;;;;;;;;;;;;;;;;;5064326;28;20402;-82
2023/01/15 12:54:48;;;;;;;2.00;0.80;;;;;;;;;;5080907;28;19956;-81
2023/01/15 12:57:33;;;;;;;0.90;0.65;;;;;;;;;;5081162;28;20032;-82
2023/01/15 13:00:19;;;;;;;1.70;0.70;;;;;;;;;;5080922;28;20044;-81
2023/01/15 13:02:56;;;;;;;0.38;0.30;;;;;;;;;;5062200;28;20025;-81
2023/01/15 13:05:38;;;;;;;0.73;0.60;;;;;;;;;;5094780;28;20035;-81
2023/01/15 13:08:21;;;;;;;0.95;0.63;;;;;;;;;;5095081;28;20032;-81
2023/01/15 13:10:49;;;;;;;0.73;0.50;;;;;;;;;;5091303;28;20055;-81
2023/01/15 13:13:21;;;;;;;3.88;0.75;;;;;;;;;;5078982;28;20038;-81
2023/01/15 13:16:08;;;;;;;0.68;0.60;;;;;;;;;;5079296;28;20487;-81
2023/01/15 13:18:46;;;;;;;0.30;0.30;;;;;;;;;;5061367;28;20024;-81
2023/01/15 13:21:14;;;;;;;1.60;0.70;;;;;;;;;;5061627;28;20021;-80
2023/01/15 13:23:59;;;;;;;0.82;0.38;;;;;;;;;;5079332;28;20035;-81
2023/01/15 13:26:49;;;;;;;1.27;0.65;;;;;;;;;;5061401;28;20036;-81
2023/01/15 13:29:32;;;;;;;0.82;0.40;;;;;;;;;;5080085;28;20068;-82
2023/01/15 13:32:13;;;;;;;0.60;0.28;;;;;;;;;;5080137;28;20028;-82
2023/01/15 13:35:04;;;;;;;0.43;0.40;;;;;;;;;;5081076;28;20029;-82
2023/01/15 13:37:39;;;;;;;0.40;0.40;;;;;;;;;;5080636;28;20024;-82
2023/01/15 13:40:27;;;;;;;0.70;0.50;;;;;;;;;;5080863;28;20520;-81
2023/01/15 13:42:54;;;;;;;0.73;0.40;;;;;;;;;;5079941;28;20095;-83
2023/01/15 13:45:26;;;;;;;1.30;0.32;;;;;;;;;;5079707;28;20062;-81
2023/01/15 13:47:55;;;;;;;0.75;0.50;;;;;;;;;;5079885;28;20024;-81
2023/01/15 13:50:32;;;;;;;0.55;0.38;;;;;;;;;;5061654;28;20051;-81
2023/01/15 13:53:28;;;;;;;0.65;0.50;;;;;;;;;;5080766;28;20094;-80
2023/01/15 13:56:13;;;;;;;0.82;0.50;;;;;;;;;;5049682;28;20036;-81
2023/01/15 13:59:00;;;;;;;0.93;0.40;;;;;;;;;;5079353;28;20031;-83
2023/01/15 14:01:28;;;;;;;0.68;0.43;;;;;;;;;;5079574;28;20028;-81
2023/01/15 14:04:11;;;;;;;1.55;0.40;;;;;;;;;;5079351;28;20028;-81
2023/01/15 14:06:50;;;;;;;0.65;0.47;;;;;;;;;;5079583;28;20099;-81
2023/01/15 14:09:15;;;;;;;0.40;0.40;;;;;;;;;;5060553;28;20099;-81
2023/01/15 14:12:05;;;;;;;0.40;0.40;;;;;;;;;;5077368;28;20027;-81
2023/01/15 14:14:46;;;;;;;0.98;0.30;;;;;;;;;;5059313;28;20063;-81
2023/01/15 14:17:53;;;;;;;0.40;0.35;;;;;;;;;;5059993;28;20025;-82
2023/01/15 14:20:33;;;;;;;0.55;0.40;;;;;;;;;;5059643;28;20047;-83
2023/01/15 14:23:29;;;;;;;1.85;0.40;;;;;;;;;;5077893;28;20017;-80
2023/01/15 14:26:13;;;;;;;0.60;0.38;;;;;;;;;;5051684;28;20048;-80
2023/01/15 14:28:52;;;;;;;0.95;0.60;;;;;;;;;;5059382;28;20032;-80
2023/01/15 14:31:40;;;;;;;0.93;0.50;;;;;;;;;;5077456;28;20119;-81
2023/01/15 14:34:16;;;;;;;0.65;0.60;;;;;;;;;;5077375;28;20032;-81
2023/01/15 14:36:50;;;;;;;0.60;0.50;;;;;;;;;;5058694;28;20021;-81
2023/01/15 14:39:33;;;;;;;0.60;0.40;;;;;;;;;;5076952;28;20108;-80
2023/01/15 14:44:59;;;;;;;0.25;0.25;;;;;;;;;;5077774;28;20443;-81
2023/01/15 14:47:29;;;;;;;0.28;0.28;;;;;;;;;;5058990;28;20028;-80
2023/01/15 14:50:33;;;;;;;0.25;0.25;;;;;;;;;;5077153;28;20386;-81
2023/01/15 14:53:04;;;;;;;1.55;0.40;;;;;;;;;;5078688;28;20108;-81
2023/01/15 14:55:30;;;;;;;0.63;0.40;;;;;;;;;;5059466;28;20028;-81
2023/01/15 14:58:03;;;;;;;0.68;0.38;;;;;;;;;;5077071;28;20025;-82
2023/01/15 15:00:35;;;;;;;0.83;0.50;;;;;;;;;;5077407;28;20024;-82
2023/01/15 15:03:04;;;;;;;0.95;0.30;;;;;;;;;;5059234;28;20024;-82
2023/01/15 15:05:31;;;;;;;0.20;0.20;;;;;;;;;;5077224;28;20036;-82
2023/01/15 15:07:57;;;;;;;0.43;0.30;;;;;;;;;;5077283;28;20028;-81
2023/01/15 15:10:32;;;;;;;2.60;0.30;;;;;;;;;;5077761;28;20026;-83
2023/01/15 15:13:04;;;;;;;0.30;0.30;;;;;;;;;;5059291;28;20024;-82
2023/01/15 15:15:54;;;;;;;0.47;0.32;;;;;;;;;;5078740;28;20043;-83
2023/01/15 15:18:31;;;;;;;0.32;0.30;;;;;;;;;;5059493;28;20031;-83
2023/01/15 15:21:08;;;;;;;0.40;0.28;;;;;;;;;;5058995;28;20028;-83
2023/01/15 15:24:00;;;;;;;0.80;0.50;;;;;;;;;;5060384;28;20024;-81
2023/01/15 15:26:28;;;;;;;1.52;0.70;;;;;;;;;;5036729;28;20044;-82
2023/01/15 15:29:02;;;;;;;0.50;0.40;;;;;;;;;;5064443;28;20120;-82
2023/01/15 15:31:34;;;;;;;0.57;0.45;;;;;;;;;;5080848;28;20024;-82
2023/01/15 15:33:59;;;;;;;0.73;0.50;;;;;;;;;;5081073;28;20037;-82
2023/01/15 15:36:27;;;;;;;0.60;0.47;;;;;;;;;;5081010;28;20063;-81
2023/01/15 15:39:19;;;;;;;0.77;0.35;;;;;;;;;;5062544;28;20047;-79
2023/01/15 15:50:30;;;;;;;0.77;0.40;;;;;;;;;;5080525;28;20022;-82
2023/01/15 15:52:57;;;;;;;2.28;0.52;;;;;;;;;;5079644;28;20024;-82
2023/01/15 15:55:31;;;;;;;0.93;0.43;;;;;;;;;;5079060;28;20029;-81
2023/01/15 15:58:01;;;;;;;0.55;0.50;;;;;;;;;;5061260;28;20496;-83
2023/01/15 16:00:37;;;;;;;0.50;0.30;;;;;;;;;;5062027;28;20078;-82
2023/01/15 16:03:15;;;;;;;1.02;0.73;;;;;;;;;;5062437;28;20031;-82
2023/01/15 16:05:40;;;;;;;1.40;0.50;;;;;;;;;;5081965;28;20047;-83
2023/01/15 16:08:17;;;;;;;1.38;0.95;;;;;;;;;;5063118;28;20477;-83
2023/01/15 16:10:46;;;;;;;2.38;0.60;;;;;;;;;;5080518;28;20025;-81
2023/01/15 16:13:21;;;;;;;0.40;0.32;;;;;;;;;;5081393;28;20063;-83